createdAt,value
2019-02-17T00:02:05.065Z,69.24
2019-02-17T00:04:34.593Z,69.33
2019-02-17T00:07:04.119Z,69.45
2019-02-17T00:09:33.658Z,69.60
2019-02-17T00:12:03.167Z,69.85
2019-02-17T00:14:32.696Z,70.02
2019-02-17T00:17:02.217Z,70.14
2019-02-17T00:19:31.752Z,70.32
2019-02-17T00:22:01.297Z,70.47
2019-02-17T00:24:30.813Z,70.54
2019-02-17T00:27:00.345Z,70.60
2019-02-17T00:29:29.876Z,70.69
2019-02-17T00:31:59.404Z,70.79
2019-02-17T00:34:28.919Z,70.92
2019-02-17T00:36:58.508Z,71.03
2019-02-17T00:39:28.039Z,71.16
2019-02-17T00:41:57.556Z,71.25
2019-02-17T00:44:27.089Z,71.33
2019-02-17T00:46:56.613Z,71.39
2019-02-17T00:49:26.817Z,71.52
2019-02-17T00:51:56.343Z,71.68
2019-02-17T00:54:25.861Z,71.77
2019-02-17T00:56:55.656Z,71.89
2019-02-17T00:59:25.165Z,71.99
2019-02-17T01:01:54.735Z,72.06
2019-02-17T01:04:24.245Z,72.14
2019-02-17T01:06:53.865Z,72.24
2019-02-17T01:09:23.391Z,72.33
2019-02-17T01:11:52.906Z,72.44
2019-02-17T01:14:22.450Z,72.56
2019-02-17T01:16:52.297Z,72.75
2019-02-17T01:19:21.900Z,72.92
2019-02-17T01:21:51.425Z,73.06
2019-02-17T01:24:20.957Z,73.18
2019-02-17T01:26:50.464Z,73.24
2019-02-17T01:29:20.903Z,73.28
2019-02-17T01:31:50.506Z,73.35
2019-02-17T01:34:20.059Z,73.45
2019-02-17T01:36:49.666Z,73.48
2019-02-17T01:39:19.171Z,73.50
2019-02-17T01:41:48.940Z,73.57
2019-02-17T01:44:18.422Z,73.60
2019-02-17T01:46:48.007Z,73.64
2019-02-17T01:49:17.536Z,73.67
2019-02-17T01:51:47.059Z,73.75
2019-02-17T01:54:16.606Z,73.89
2019-02-17T01:56:46.118Z,73.92
2019-02-17T01:59:15.656Z,74.02
2019-02-17T02:01:45.170Z,74.12
2019-02-17T02:04:14.684Z,74.24
2019-02-17T02:06:44.212Z,74.29
2019-02-17T02:09:13.727Z,74.32
2019-02-17T02:11:43.565Z,74.37
2019-02-17T02:14:13.079Z,74.43
2019-02-17T02:16:42.722Z,74.52
2019-02-17T02:19:12.239Z,74.68
2019-02-17T02:21:41.757Z,74.86
2019-02-17T02:24:11.603Z,75.11
2019-02-17T02:26:41.124Z,75.27
2019-02-17T02:29:10.653Z,75.42
2019-02-17T02:31:40.165Z,75.55
2019-02-17T02:34:10.031Z,75.58
2019-02-17T02:36:39.541Z,75.66
2019-02-17T02:39:09.057Z,75.81
2019-02-17T02:41:38.593Z,75.90
2019-02-17T02:44:08.096Z,75.95
2019-02-17T02:46:37.622Z,76.00
2019-02-17T02:49:07.143Z,75.99
2019-02-17T02:51:36.693Z,76.06
2019-02-17T02:54:06.205Z,76.08
2019-02-17T02:56:35.721Z,76.16
2019-02-17T02:59:05.244Z,76.22
2019-02-17T03:01:34.758Z,76.33
2019-02-17T03:04:04.286Z,76.41
2019-02-17T03:06:35.451Z,76.47
2019-02-17T03:09:06.314Z,76.57
2019-02-17T03:11:35.828Z,76.63
2019-02-17T03:14:05.352Z,76.72
2019-02-17T03:16:34.891Z,76.83
2019-02-17T03:19:04.415Z,76.96
2019-02-17T03:21:33.932Z,77.11
2019-02-17T03:24:03.458Z,77.20
2019-02-17T03:26:32.982Z,77.32
2019-02-17T03:29:02.500Z,77.39
2019-02-17T03:31:32.038Z,77.52
2019-02-17T03:34:01.544Z,77.69
2019-02-17T03:36:31.057Z,77.80
2019-02-17T03:39:00.596Z,77.86
2019-02-17T03:41:30.376Z,77.86
2019-02-17T03:43:59.902Z,77.93
2019-02-17T03:46:29.417Z,78.00
2019-02-17T03:48:58.933Z,78.09
2019-02-17T03:51:28.798Z,78.19
2019-02-17T03:53:58.314Z,78.29
2019-02-17T03:56:27.861Z,78.32
2019-02-17T03:58:57.377Z,78.38
2019-02-17T04:01:26.902Z,78.39
2019-02-17T04:03:56.438Z,78.43
2019-02-17T04:06:25.959Z,78.55
2019-02-17T04:08:55.489Z,78.58
2019-02-17T04:11:25.009Z,78.60
2019-02-17T04:13:54.555Z,78.66
2019-02-17T04:16:24.088Z,78.66
2019-02-17T04:18:53.609Z,78.67
2019-02-17T04:21:24.725Z,78.64
2019-02-17T04:23:54.243Z,78.65
2019-02-17T04:26:23.876Z,78.66
2019-02-17T04:28:53.459Z,78.71
2019-02-17T04:31:22.989Z,78.74
2019-02-17T04:33:52.539Z,78.74
2019-02-17T04:36:22.084Z,78.74
2019-02-17T04:38:51.583Z,78.79
2019-02-17T04:41:21.201Z,78.88
2019-02-17T04:43:50.708Z,78.94
2019-02-17T04:46:21.528Z,79.00
2019-02-17T04:48:51.130Z,79.10
2019-02-17T04:51:20.642Z,79.17
2019-02-17T04:53:50.168Z,79.21
2019-02-17T04:56:19.684Z,79.25
2019-02-17T04:58:49.219Z,79.31
2019-02-17T05:01:18.741Z,79.37
2019-02-17T05:03:48.289Z,79.41
2019-02-17T05:06:17.798Z,79.51
2019-02-17T05:08:47.327Z,79.55
2019-02-17T05:11:16.867Z,79.56
2019-02-17T05:13:46.383Z,79.60
2019-02-17T05:16:15.910Z,79.63
2019-02-17T05:18:45.421Z,79.69
2019-02-17T05:21:14.952Z,79.75
2019-02-17T05:23:44.475Z,79.82
2019-02-17T05:26:13.990Z,79.86
2019-02-17T05:28:43.524Z,79.85
2019-02-17T05:31:13.025Z,79.89
2019-02-17T05:33:42.540Z,79.87
2019-02-17T05:36:12.064Z,79.94
2019-02-17T05:38:41.606Z,79.99
2019-02-17T05:41:11.132Z,80.04
2019-02-17T05:43:40.647Z,80.07
2019-02-17T05:46:10.161Z,80.03
2019-02-17T05:48:39.694Z,80.04
2019-02-17T05:51:09.214Z,80.10
2019-02-17T05:53:38.745Z,80.17
2019-02-17T05:56:08.291Z,80.22
2019-02-17T05:58:37.826Z,80.29
2019-02-17T06:01:07.513Z,80.39
2019-02-17T06:03:37.039Z,80.46
2019-02-17T06:06:06.578Z,80.43
2019-02-17T06:08:36.195Z,80.41
2019-02-17T06:11:05.714Z,80.38
2019-02-17T06:13:35.249Z,80.32
2019-02-17T06:16:04.768Z,80.24
2019-02-17T06:18:34.291Z,80.13
2019-02-17T06:21:03.836Z,79.97
2019-02-17T06:23:33.354Z,79.84
2019-02-17T06:26:02.980Z,79.76
2019-02-17T06:28:32.509Z,79.71
2019-02-17T06:31:02.022Z,79.71
2019-02-17T06:33:31.575Z,79.56
2019-02-17T06:36:01.201Z,79.45
2019-02-17T06:38:30.730Z,79.33
2019-02-17T06:41:00.246Z,79.17
2019-02-17T06:43:29.783Z,78.98
2019-02-17T06:45:59.635Z,78.76
2019-02-17T06:48:29.143Z,78.50
2019-02-17T06:50:58.700Z,78.20
2019-02-17T06:53:28.212Z,77.86
2019-02-17T06:55:59.399Z,77.19
2019-02-17T06:58:30.592Z,76.30
2019-02-17T07:01:01.974Z,75.43
2019-02-17T07:03:31.540Z,74.52
2019-02-17T07:06:05.674Z,73.49
2019-02-17T07:08:35.183Z,72.43
2019-02-17T07:11:04.732Z,71.25
2019-02-17T07:13:34.232Z,70.25
2019-02-17T07:16:03.750Z,69.22
2019-02-17T07:18:33.616Z,68.14
2019-02-17T07:21:03.145Z,66.99
2019-02-17T07:23:32.696Z,66.11
2019-02-17T07:26:02.211Z,65.02
2019-02-17T07:28:31.737Z,63.79
2019-02-17T07:31:01.258Z,62.42
2019-02-17T07:33:30.818Z,61.29
2019-02-17T07:36:00.345Z,59.94
2019-02-17T07:38:29.869Z,58.83
2019-02-17T07:40:59.423Z,58.10
2019-02-17T07:43:28.951Z,57.31
2019-02-17T07:45:58.491Z,56.67
2019-02-17T07:48:28.311Z,55.92
2019-02-17T07:50:57.847Z,54.51
2019-02-17T07:53:27.370Z,53.21
2019-02-17T07:55:56.995Z,52.33
2019-02-17T07:58:26.524Z,51.44
2019-02-17T08:00:56.121Z,50.70
2019-02-17T08:03:25.674Z,50.06
2019-02-17T08:05:55.269Z,49.50
2019-02-17T08:08:24.811Z,48.93
2019-02-17T08:11:03.495Z,48.35
2019-02-17T08:13:25.601Z,47.73
2019-02-17T08:15:55.112Z,47.04
2019-02-17T08:18:24.671Z,46.18
2019-02-17T08:20:54.195Z,45.59
2019-02-17T08:23:23.875Z,44.97
2019-02-17T08:25:53.391Z,44.34
2019-02-17T08:28:22.951Z,43.82
2019-02-17T08:30:52.488Z,43.45
2019-02-17T08:33:22.021Z,43.06
2019-02-17T08:35:51.564Z,42.52
2019-02-17T08:38:21.209Z,41.93
2019-02-17T08:40:50.714Z,41.08
2019-02-17T08:43:20.257Z,40.20
2019-02-17T08:45:49.956Z,39.19
2019-02-17T08:48:19.565Z,38.37
2019-02-17T08:50:49.082Z,37.75
2019-02-17T08:53:18.633Z,37.27
2019-02-17T08:55:48.234Z,36.93
2019-02-17T08:58:17.860Z,36.65
2019-02-17T09:00:47.370Z,36.15
2019-02-17T09:03:16.894Z,36.02
2019-02-17T09:05:46.422Z,36.19
2019-02-17T09:08:16.080Z,36.19
2019-02-17T09:10:45.656Z,35.77
2019-02-17T09:13:15.164Z,35.44
2019-02-17T09:15:44.683Z,35.32
2019-02-17T09:18:14.224Z,35.13
2019-02-17T09:20:43.930Z,34.70
2019-02-17T09:23:13.456Z,34.36
2019-02-17T09:25:42.994Z,34.27
2019-02-17T09:28:12.515Z,34.34
2019-02-17T09:30:42.033Z,34.37
2019-02-17T09:33:11.560Z,34.33
2019-02-17T09:35:41.109Z,34.23
2019-02-17T09:38:10.644Z,34.24
2019-02-17T09:40:40.182Z,34.49
2019-02-17T09:43:09.869Z,34.60
2019-02-17T09:45:39.420Z,34.60
2019-02-17T09:48:08.992Z,34.63
2019-02-17T09:50:38.604Z,34.73
2019-02-17T09:53:08.139Z,34.89
2019-02-17T09:55:39.244Z,34.92
2019-02-17T09:58:08.789Z,34.96
2019-02-17T10:00:38.297Z,34.97
2019-02-17T10:03:07.837Z,34.99
2019-02-17T10:05:37.383Z,34.88
2019-02-17T10:08:06.925Z,34.85
2019-02-17T10:10:36.523Z,34.79
2019-02-17T10:13:06.069Z,34.45
2019-02-17T10:15:35.610Z,34.17
2019-02-17T10:18:05.150Z,33.93
2019-02-17T10:20:34.671Z,33.72
2019-02-17T10:23:04.189Z,33.63
2019-02-17T10:25:33.721Z,33.60
2019-02-17T10:28:03.234Z,33.51
2019-02-17T10:30:32.869Z,33.38
2019-02-17T10:33:02.373Z,33.45
2019-02-17T10:35:31.895Z,33.60
2019-02-17T10:38:01.411Z,33.78
2019-02-17T10:40:31.092Z,33.94
2019-02-17T10:43:00.604Z,33.99
2019-02-17T10:45:30.097Z,34.09
2019-02-17T10:47:59.619Z,34.23
2019-02-17T10:50:29.190Z,34.39
2019-02-17T10:52:58.734Z,34.56
2019-02-17T10:55:28.244Z,34.71
2019-02-17T10:57:57.786Z,34.81
2019-02-17T11:00:28.972Z,35.10
2019-02-17T11:03:08.876Z,35.53
2019-02-17T11:05:38.394Z,35.79
2019-02-17T11:08:07.991Z,36.03
2019-02-17T11:10:37.575Z,36.43
2019-02-17T11:13:07.120Z,36.99
2019-02-17T11:15:36.744Z,37.52
2019-02-17T11:18:06.269Z,37.84
2019-02-17T11:20:35.888Z,38.06
2019-02-17T11:23:05.805Z,38.30
2019-02-17T11:25:35.464Z,38.43
2019-02-17T11:28:04.994Z,38.49
2019-02-17T11:30:34.578Z,38.50
2019-02-17T11:33:04.341Z,38.62
2019-02-17T11:35:33.854Z,39.09
2019-02-17T11:38:03.380Z,39.64
2019-02-17T11:40:32.899Z,40.12
2019-02-17T11:43:02.450Z,40.55
2019-02-17T11:45:32.196Z,40.92
2019-02-17T11:48:01.726Z,41.32
2019-02-17T11:50:31.250Z,41.81
2019-02-17T11:53:00.766Z,42.27
2019-02-17T11:55:30.322Z,42.48
2019-02-17T11:57:59.839Z,42.70
2019-02-17T12:00:29.376Z,42.97
2019-02-17T12:03:07.581Z,43.23
2019-02-17T12:05:30.141Z,43.49
2019-02-17T12:07:59.665Z,43.55
2019-02-17T12:10:29.307Z,43.63
2019-02-17T12:12:58.844Z,43.83
2019-02-17T12:15:28.362Z,44.04
2019-02-17T12:17:59.297Z,44.20
2019-02-17T12:20:40.854Z,44.29
2019-02-17T12:23:23.895Z,44.45
2019-02-17T12:25:57.756Z,44.50
2019-02-17T12:28:34.626Z,44.54
2019-02-17T12:31:04.209Z,44.72
2019-02-17T12:33:33.738Z,44.88
2019-02-17T12:36:03.274Z,45.00
2019-02-17T12:38:33.070Z,45.04
2019-02-17T12:41:02.587Z,45.08
2019-02-17T12:43:32.111Z,45.07
2019-02-17T12:46:01.638Z,45.09
2019-02-17T12:48:31.154Z,45.17
2019-02-17T12:51:00.852Z,45.20
2019-02-17T12:53:30.369Z,45.15
2019-02-17T12:55:59.884Z,45.23
2019-02-17T12:58:30.308Z,45.33
2019-02-17T13:01:00.078Z,45.29
2019-02-17T13:03:29.606Z,45.33
2019-02-17T13:05:59.120Z,45.29
2019-02-17T13:08:28.655Z,45.28
2019-02-17T13:10:58.164Z,45.30
2019-02-17T13:13:27.701Z,45.24
2019-02-17T13:15:57.220Z,45.20
2019-02-17T13:18:26.738Z,45.25
2019-02-17T13:20:56.293Z,45.24
2019-02-17T13:23:25.807Z,45.28
2019-02-17T13:25:55.342Z,45.42
2019-02-17T13:28:24.853Z,45.57
2019-02-17T13:30:54.388Z,45.70
2019-02-17T13:33:23.894Z,45.79
2019-02-17T13:35:53.535Z,45.86
2019-02-17T13:38:23.057Z,45.86
2019-02-17T13:40:52.578Z,45.96
2019-02-17T13:43:22.134Z,45.96
2019-02-17T13:45:51.651Z,45.95
2019-02-17T13:48:21.617Z,46.06
2019-02-17T13:50:51.129Z,46.17
2019-02-17T13:53:20.644Z,46.30
2019-02-17T13:55:50.169Z,46.42
2019-02-17T13:58:19.686Z,46.52
2019-02-17T14:00:49.231Z,46.62
2019-02-17T14:03:18.760Z,46.67
2019-02-17T14:05:48.280Z,46.75
2019-02-17T14:08:17.806Z,46.83
2019-02-17T14:10:47.320Z,46.88
2019-02-17T14:13:16.863Z,46.95
2019-02-17T14:15:46.384Z,47.00
2019-02-17T14:18:15.913Z,47.11
2019-02-17T14:20:45.433Z,47.19
2019-02-17T14:23:14.977Z,47.25
2019-02-17T14:25:44.506Z,47.32
2019-02-17T14:28:14.025Z,47.42
2019-02-17T14:30:43.560Z,47.49
2019-02-17T14:33:13.084Z,47.61
2019-02-17T14:35:42.615Z,47.70
2019-02-17T14:38:12.140Z,47.77
2019-02-17T14:40:41.656Z,47.85
2019-02-17T14:43:11.190Z,47.96
2019-02-17T14:45:41.023Z,48.09
2019-02-17T14:48:11.425Z,48.23
2019-02-17T14:50:41.053Z,48.36
2019-02-17T14:53:10.596Z,48.42
2019-02-17T14:55:40.120Z,48.56
2019-02-17T14:58:09.646Z,48.73
2019-02-17T15:00:39.160Z,48.92
2019-02-17T15:03:08.687Z,49.08
2019-02-17T15:05:38.224Z,49.18
2019-02-17T15:08:07.764Z,49.36
2019-02-17T15:10:37.301Z,49.60
2019-02-17T15:13:06.823Z,49.80
2019-02-17T15:15:36.346Z,49.91
2019-02-17T15:18:06.001Z,50.11
2019-02-17T15:20:35.543Z,50.31
2019-02-17T15:23:05.288Z,50.49
2019-02-17T15:25:34.871Z,50.64
2019-02-17T15:28:04.417Z,50.78
2019-02-17T15:30:33.915Z,50.99
2019-02-17T15:33:04.391Z,51.19
2019-02-17T15:35:35.052Z,51.42
2019-02-17T15:38:04.706Z,51.64
2019-02-17T15:40:34.226Z,51.85
2019-02-17T15:43:03.761Z,52.05
2019-02-17T15:45:33.276Z,52.24
2019-02-17T15:48:02.805Z,52.44
2019-02-17T15:50:32.322Z,52.63
2019-02-17T15:53:01.841Z,52.89
2019-02-17T15:55:31.378Z,53.11
2019-02-17T15:58:00.895Z,53.24
2019-02-17T16:00:30.440Z,53.39
2019-02-17T16:02:59.952Z,53.60
2019-02-17T16:05:29.641Z,53.93
2019-02-17T16:07:59.148Z,54.23
2019-02-17T16:10:28.663Z,54.48
2019-02-17T16:12:58.198Z,54.75
2019-02-17T16:15:28.195Z,55.00
2019-02-17T16:17:57.731Z,55.15
2019-02-17T16:20:27.240Z,55.27
2019-02-17T16:22:56.775Z,55.27
2019-02-17T16:25:26.292Z,55.33
2019-02-17T16:27:55.816Z,55.40
2019-02-17T16:30:25.714Z,55.51
2019-02-17T16:32:55.230Z,55.56
2019-02-17T16:35:24.775Z,55.63
2019-02-17T16:37:54.281Z,55.71
2019-02-17T16:40:23.820Z,55.83
2019-02-17T16:42:53.341Z,55.95
2019-02-17T16:45:22.890Z,56.04
2019-02-17T16:47:52.398Z,56.10
2019-02-17T16:50:29.250Z,56.12
2019-02-17T16:52:58.743Z,56.18
2019-02-17T16:55:28.278Z,56.32
2019-02-17T16:57:57.799Z,56.50
2019-02-17T17:00:27.315Z,56.61
2019-02-17T17:02:57.688Z,56.70
2019-02-17T17:05:27.209Z,56.87
2019-02-17T17:07:56.756Z,56.99
2019-02-17T17:10:26.294Z,57.13
2019-02-17T17:12:55.908Z,57.20
2019-02-17T17:15:25.478Z,57.33
2019-02-17T17:17:55.015Z,57.43
2019-02-17T17:20:24.591Z,57.59
2019-02-17T17:22:54.107Z,57.77
2019-02-17T17:25:23.870Z,58.00
2019-02-17T17:27:53.379Z,58.24
2019-02-17T17:30:22.917Z,58.39
2019-02-17T17:32:52.453Z,58.56
2019-02-17T17:35:21.986Z,58.67
2019-02-17T17:37:51.501Z,58.86
2019-02-17T17:40:21.033Z,59.02
2019-02-17T17:42:50.548Z,59.11
2019-02-17T17:45:23.385Z,59.14
2019-02-17T17:47:52.882Z,59.29
2019-02-17T17:50:22.401Z,59.44
2019-02-17T17:52:50.624Z,59.66
2019-02-17T17:55:20.146Z,59.63
2019-02-17T17:57:49.678Z,59.74
2019-02-17T18:00:23.878Z,59.94
2019-02-17T18:02:53.395Z,60.18
2019-02-17T18:05:22.904Z,60.46
2019-02-17T18:07:52.407Z,60.71
2019-02-17T18:10:21.934Z,60.97
2019-02-17T18:12:51.588Z,61.21
2019-02-17T18:15:21.587Z,61.38
2019-02-17T18:17:54.604Z,61.56
2019-02-17T18:20:22.439Z,61.84
2019-02-17T18:22:51.960Z,62.12
2019-02-17T18:25:21.559Z,62.38
2019-02-17T18:27:51.083Z,62.59
2019-02-17T18:30:21.326Z,62.80
2019-02-17T18:32:50.864Z,63.00
2019-02-17T18:35:20.852Z,63.22
2019-02-17T18:37:50.464Z,63.50
2019-02-17T18:40:20.831Z,63.72
2019-02-17T18:42:50.347Z,63.97
2019-02-17T18:45:19.866Z,64.21
2019-02-17T18:47:49.396Z,64.43
2019-02-17T18:50:19.845Z,64.61
2019-02-17T18:52:49.365Z,64.77
2019-02-17T18:55:18.896Z,65.07
2019-02-17T18:57:50.854Z,65.36
2019-02-17T19:00:23.327Z,65.55
2019-02-17T19:02:52.826Z,65.79
2019-02-17T19:05:31.478Z,65.98
2019-02-17T19:07:53.604Z,66.21
2019-02-17T19:10:23.275Z,66.34
2019-02-17T19:12:52.811Z,66.45
2019-02-17T19:15:25.103Z,66.62
2019-02-17T19:17:54.629Z,66.67
2019-02-17T19:20:30.897Z,66.74
2019-02-17T19:23:00.410Z,66.85
2019-02-17T19:25:29.984Z,66.92
2019-02-17T19:27:59.707Z,67.03
2019-02-17T19:30:29.218Z,67.15
2019-02-17T19:32:58.733Z,67.23
2019-02-17T19:35:28.327Z,67.28
2019-02-17T19:37:57.841Z,67.44
2019-02-17T19:40:27.384Z,67.52
2019-02-17T19:42:56.891Z,67.62
2019-02-17T19:45:26.450Z,67.73
2019-02-17T19:47:55.976Z,67.75
2019-02-17T19:50:25.509Z,67.82
2019-02-17T19:52:55.021Z,67.83
2019-02-17T19:55:24.531Z,67.81
2019-02-17T19:57:54.094Z,67.80
2019-02-17T20:00:23.867Z,67.83
2019-02-17T20:03:10.100Z,67.94
2019-02-17T20:05:51.962Z,68.09
2019-02-17T20:08:18.823Z,68.11
2019-02-17T20:10:48.337Z,68.21
2019-02-17T20:13:18.199Z,68.29
2019-02-17T20:15:47.722Z,68.38
2019-02-17T20:18:17.237Z,68.58
2019-02-17T20:20:46.760Z,68.76
2019-02-17T20:23:16.276Z,68.92
2019-02-17T20:25:45.787Z,69.04
2019-02-17T20:28:15.301Z,69.14
2019-02-17T20:30:44.814Z,69.16
2019-02-17T20:33:14.426Z,69.18
2019-02-17T20:35:44.107Z,69.21
2019-02-17T20:38:13.657Z,69.23
2019-02-17T20:40:43.161Z,69.20
2019-02-17T20:43:12.680Z,69.29
2019-02-17T20:45:42.211Z,69.35
2019-02-17T20:48:12.395Z,69.46
2019-02-17T20:50:42.460Z,69.56
2019-02-17T20:53:11.973Z,69.59
2019-02-17T20:55:41.468Z,69.73
2019-02-17T20:58:11.113Z,69.90
2019-02-17T21:00:40.592Z,69.99
2019-02-17T21:03:10.122Z,70.16
2019-02-17T21:05:39.692Z,70.36
2019-02-17T21:08:09.404Z,70.53
2019-02-17T21:10:38.985Z,70.59
2019-02-17T21:13:08.586Z,70.71
2019-02-17T21:15:38.083Z,70.77
2019-02-17T21:18:07.601Z,70.86
2019-02-17T21:20:38.081Z,70.88
2019-02-17T21:23:07.593Z,70.88
2019-02-17T21:25:37.100Z,70.93
2019-02-17T21:28:06.610Z,70.94
2019-02-17T21:30:36.193Z,71.00
2019-02-17T21:33:05.745Z,71.05
2019-02-17T21:35:35.247Z,71.21
2019-02-17T21:38:04.844Z,71.35
2019-02-17T21:40:34.356Z,71.50
2019-02-17T21:43:03.884Z,71.62
2019-02-17T21:45:33.395Z,71.71
2019-02-17T21:48:02.922Z,71.79
2019-02-17T21:50:32.439Z,71.81
2019-02-17T21:53:01.936Z,71.85
2019-02-17T21:55:31.447Z,71.92
2019-02-17T21:58:01.012Z,72.02
2019-02-17T22:00:30.536Z,72.14
2019-02-17T22:03:00.129Z,72.18
2019-02-17T22:05:29.632Z,72.22
2019-02-17T22:07:59.611Z,72.31
2019-02-17T22:10:29.120Z,72.38
2019-02-17T22:12:58.625Z,72.45
2019-02-17T22:15:28.145Z,72.49
2019-02-17T22:17:57.656Z,72.48
2019-02-17T22:20:27.204Z,72.52
2019-02-17T22:22:56.711Z,72.62
2019-02-17T22:25:26.242Z,72.69
2019-02-17T22:27:56.122Z,72.80
2019-02-17T22:30:25.628Z,72.92
2019-02-17T22:32:55.152Z,73.02
2019-02-17T22:35:24.661Z,73.14
2019-02-17T22:37:54.165Z,73.24
2019-02-17T22:40:23.765Z,73.32
2019-02-17T22:42:53.269Z,73.45
2019-02-17T22:45:22.814Z,73.54
2019-02-17T22:47:52.321Z,73.60
2019-02-17T22:50:21.839Z,73.63
2019-02-17T22:52:51.376Z,73.68
2019-02-17T22:55:20.883Z,73.75
2019-02-17T22:57:50.517Z,73.84
2019-02-17T23:00:58.381Z,73.99
2019-02-17T23:03:29.820Z,74.09
2019-02-17T23:05:59.602Z,74.07
2019-02-17T23:08:29.300Z,74.25
2019-02-17T23:10:58.754Z,74.36
2019-02-17T23:13:28.347Z,74.42
2019-02-17T23:15:57.864Z,74.43
2019-02-17T23:18:27.392Z,74.49
2019-02-17T23:20:57.209Z,74.60
2019-02-17T23:23:26.756Z,74.68
2019-02-17T23:25:56.255Z,74.79
2019-02-17T23:28:26.082Z,74.84
2019-02-17T23:30:55.890Z,74.84
2019-02-17T23:33:25.886Z,74.82
2019-02-17T23:35:55.408Z,74.83
2019-02-17T23:38:25.183Z,74.88
2019-02-17T23:40:54.706Z,74.94
2019-02-17T23:43:24.213Z,75.05
2019-02-17T23:45:54.104Z,75.13
2019-02-17T23:48:23.607Z,75.24
2019-02-17T23:50:53.406Z,75.33
2019-02-17T23:53:22.940Z,75.37
2019-02-17T23:55:52.446Z,75.41
2019-02-17T23:58:22.275Z,75.46
